Buena Ventura Lakes, Florida
Current Conditions -  °F | °C
As of 9:47 PM on Sunday 21 Dec 2014 (Local Time) from KISM Reporting Station
Scattered Clouds Scattered Clouds  
Wind Chill: 68°   Ceiling: Unl
Heat Index: 68°   Visibility: 10mi
Dew Point: 68°   Wind: 0mph
Humidity: 100%   Direction: NA
Pressure: 30.05"   Gusts: NA
Location:  28.34°N, 81.35°W
Report Text: KISM 220247Z 00000KT 10SM SCT042 20/20 A3005 RMK LAST
Loading
Personal Weather Stations






























Interactive Weather Map New forecast layout! Learn more

10-Day Weather Forecast

Advertisements
Track Severe Weather on mobile